Time;durP1;ratioP1;P1;durP2;ratioP2;P2;SDS_P1;SDS_P2;PMS_P1;PMS_P2;Temp;Humidity;BMP_temperature;BMP_pressure;BME280_temperature;BME280_humidity;BME280_pressure;Samples;Min_cycle;Max_cycle;Signal;HPM_P1;HPM_P2
2023/08/08 00:01:23;;;;;;;1.08;0.55;;;;;;;;;;5063130;28;20140;-60
2023/08/08 00:03:49;;;;;;;0.73;0.40;;;;;;;;;;5064581;28;20044;-63
2023/08/08 00:06:14;;;;;;;0.83;0.30;;;;;;;;;;5051846;28;20083;-61
2023/08/08 00:08:39;;;;;;;2.47;0.70;;;;;;;;;;5065332;28;20036;-61
2023/08/08 00:11:05;;;;;;;1.77;0.60;;;;;;;;;;5064673;28;20036;-61
2023/08/08 00:13:30;;;;;;;1.20;0.50;;;;;;;;;;5034038;28;20824;-62
2023/08/08 00:15:55;;;;;;;1.50;0.57;;;;;;;;;;5049808;28;20038;-61
2023/08/08 00:18:20;;;;;;;2.13;0.70;;;;;;;;;;5045219;28;20279;-62
2023/08/08 00:20:45;;;;;;;1.00;0.53;;;;;;;;;;5062873;28;20101;-62
2023/08/08 00:23:11;;;;;;;1.97;0.50;;;;;;;;;;5074767;28;20380;-60
2023/08/08 00:25:36;;;;;;;1.30;0.70;;;;;;;;;;5064467;28;20295;-62
2023/08/08 00:28:02;;;;;;;1.52;0.60;;;;;;;;;;5071158;28;20042;-62
2023/08/08 00:30:27;;;;;;;1.27;0.60;;;;;;;;;;5073831;28;20517;-61
2023/08/08 00:32:52;;;;;;;1.73;0.50;;;;;;;;;;5057974;28;20576;-62
2023/08/08 00:35:17;;;;;;;1.53;0.60;;;;;;;;;;5062337;28;20294;-61
2023/08/08 00:37:43;;;;;;;1.00;0.30;;;;;;;;;;5064471;28;20047;-60
2023/08/08 00:40:08;;;;;;;1.30;0.50;;;;;;;;;;5064229;28;20278;-62
2023/08/08 00:42:33;;;;;;;0.70;0.40;;;;;;;;;;5064313;28;20332;-61
2023/08/08 00:45:03;;;;;;;1.00;0.50;;;;;;;;;;5063570;28;20040;-61
2023/08/08 00:47:28;;;;;;;1.08;0.38;;;;;;;;;;5047968;28;20063;-62
2023/08/08 00:49:54;;;;;;;0.90;0.45;;;;;;;;;;5064390;28;20033;-62
2023/08/08 00:52:19;;;;;;;1.23;0.67;;;;;;;;;;5064379;28;20040;-62
2023/08/08 00:54:44;;;;;;;1.47;0.57;;;;;;;;;;5046014;28;20044;-62
2023/08/08 00:57:09;;;;;;;1.17;0.55;;;;;;;;;;5063347;28;20847;-61
2023/08/08 00:59:35;;;;;;;0.83;0.47;;;;;;;;;;5065306;28;20024;-62
2023/08/08 01:02:00;;;;;;;1.83;0.38;;;;;;;;;;5068113;28;20051;-62
2023/08/08 01:04:25;;;;;;;1.23;0.55;;;;;;;;;;5068030;28;20060;-61
2023/08/08 01:06:53;;;;;;;1.05;0.55;;;;;;;;;;5053959;28;20276;-62
2023/08/08 01:09:24;;;;;;;0.95;0.43;;;;;;;;;;5049834;28;20033;-62
2023/08/08 01:11:49;;;;;;;0.80;0.50;;;;;;;;;;5049689;28;20154;-62
2023/08/08 01:14:15;;;;;;;0.68;0.40;;;;;;;;;;5068102;28;20409;-62
2023/08/08 01:16:40;;;;;;;1.02;0.35;;;;;;;;;;5068005;28;20051;-61
2023/08/08 01:19:06;;;;;;;0.85;0.52;;;;;;;;;;5068234;28;20105;-62
2023/08/08 01:21:31;;;;;;;1.13;0.50;;;;;;;;;;5035146;28;20501;-60
2023/08/08 01:23:56;;;;;;;0.97;0.50;;;;;;;;;;5049870;28;20032;-62
2023/08/08 01:26:22;;;;;;;0.60;0.50;;;;;;;;;;5049882;28;20020;-62
2023/08/08 01:28:47;;;;;;;2.00;0.60;;;;;;;;;;5080684;28;20436;-60
2023/08/08 01:31:12;;;;;;;1.07;0.50;;;;;;;;;;5075696;28;20265;-62
2023/08/08 01:33:37;;;;;;;1.43;0.40;;;;;;;;;;5067489;28;20091;-60
2023/08/08 01:36:05;;;;;;;1.37;0.40;;;;;;;;;;5069247;28;20044;-61
2023/08/08 01:38:32;;;;;;;0.80;0.50;;;;;;;;;;5067546;28;20274;-62
2023/08/08 01:40:57;;;;;;;0.95;0.60;;;;;;;;;;5059866;28;20871;-61
2023/08/08 01:43:22;;;;;;;0.60;0.40;;;;;;;;;;5049278;28;20036;-61
2023/08/08 01:45:48;;;;;;;1.17;0.60;;;;;;;;;;5067673;28;20197;-60
2023/08/08 01:48:13;;;;;;;1.33;0.50;;;;;;;;;;5067599;28;20324;-62
2023/08/08 01:50:38;;;;;;;1.80;0.60;;;;;;;;;;5063446;28;20346;-61
2023/08/08 01:53:03;;;;;;;1.50;0.63;;;;;;;;;;5065787;28;20281;-61
2023/08/08 01:55:29;;;;;;;0.77;0.50;;;;;;;;;;5050641;28;20483;-61
2023/08/08 01:57:55;;;;;;;1.17;0.65;;;;;;;;;;5072220;28;20016;-60
2023/08/08 02:00:20;;;;;;;1.55;0.65;;;;;;;;;;5085492;28;20095;-62
2023/08/08 02:02:45;;;;;;;1.47;0.60;;;;;;;;;;5067777;28;20021;-59
2023/08/08 02:05:10;;;;;;;1.67;0.70;;;;;;;;;;5067665;28;20025;-61
2023/08/08 02:07:36;;;;;;;1.17;0.60;;;;;;;;;;5067099;28;20271;-62
2023/08/08 02:10:01;;;;;;;1.33;0.60;;;;;;;;;;5052185;28;20025;-62
2023/08/08 02:12:28;;;;;;;0.90;0.60;;;;;;;;;;5048187;28;20353;-63
2023/08/08 02:14:53;;;;;;;1.10;0.52;;;;;;;;;;5067305;28;20024;-60
2023/08/08 02:17:19;;;;;;;1.70;0.60;;;;;;;;;;5067405;28;20101;-59
2023/08/08 02:19:44;;;;;;;0.93;0.60;;;;;;;;;;5067369;28;20489;-61
2023/08/08 02:22:09;;;;;;;1.80;0.70;;;;;;;;;;5067116;28;20482;-60
2023/08/08 02:24:34;;;;;;;0.70;0.60;;;;;;;;;;5067446;28;20290;-60
2023/08/08 02:27:00;;;;;;;1.00;0.60;;;;;;;;;;5066708;28;20021;-60
2023/08/08 02:29:25;;;;;;;0.67;0.47;;;;;;;;;;5066736;28;20034;-62
2023/08/08 02:31:50;;;;;;;0.93;0.60;;;;;;;;;;5075483;28;20323;-62
2023/08/08 02:34:15;;;;;;;2.17;0.60;;;;;;;;;;5067153;28;20328;-63
2023/08/08 02:36:40;;;;;;;0.90;0.70;;;;;;;;;;5066142;28;20917;-61
2023/08/08 02:39:06;;;;;;;1.23;0.67;;;;;;;;;;5077098;28;20059;-61
2023/08/08 02:41:31;;;;;;;1.27;0.60;;;;;;;;;;5057687;28;20279;-60
2023/08/08 02:43:56;;;;;;;1.03;0.70;;;;;;;;;;5028442;28;20303;-60
2023/08/08 02:46:21;;;;;;;0.80;0.50;;;;;;;;;;5048718;28;20349;-60
2023/08/08 02:48:47;;;;;;;2.00;0.73;;;;;;;;;;5049701;28;21803;-62
2023/08/08 02:51:12;;;;;;;1.20;0.70;;;;;;;;;;5049460;28;20849;-62
2023/08/08 02:53:37;;;;;;;1.23;0.93;;;;;;;;;;5066705;28;20293;-62
2023/08/08 02:56:02;;;;;;;1.07;0.70;;;;;;;;;;5066149;28;20049;-62
2023/08/08 02:58:27;;;;;;;1.85;0.80;;;;;;;;;;5017512;28;20048;-61
2023/08/08 03:00:53;;;;;;;1.10;0.80;;;;;;;;;;5063796;28;20044;-61
2023/08/08 03:03:18;;;;;;;0.90;0.60;;;;;;;;;;5048709;28;20718;-62
2023/08/08 03:05:44;;;;;;;1.40;0.70;;;;;;;;;;5066208;28;20586;-62
2023/08/08 03:08:09;;;;;;;1.20;0.80;;;;;;;;;;5065685;28;20042;-60
2023/08/08 03:10:34;;;;;;;1.00;0.85;;;;;;;;;;5066003;28;20500;-61
2023/08/08 03:12:59;;;;;;;0.77;0.60;;;;;;;;;;5060224;28;20099;-63
2023/08/08 03:15:25;;;;;;;1.00;0.70;;;;;;;;;;5046006;28;20063;-62
2023/08/08 03:17:50;;;;;;;1.60;0.83;;;;;;;;;;5045546;28;20048;-61
2023/08/08 03:20:16;;;;;;;1.23;0.73;;;;;;;;;;5046499;28;20270;-61
2023/08/08 03:22:41;;;;;;;1.45;0.90;;;;;;;;;;5045234;28;20751;-60
2023/08/08 03:25:07;;;;;;;1.20;0.80;;;;;;;;;;5045712;28;20483;-60
2023/08/08 03:27:32;;;;;;;1.30;0.90;;;;;;;;;;5060889;28;20337;-59
2023/08/08 03:29:57;;;;;;;1.77;0.73;;;;;;;;;;5045771;28;20051;-63
2023/08/08 03:32:22;;;;;;;1.63;0.73;;;;;;;;;;5047714;28;20052;-60
2023/08/08 03:34:47;;;;;;;1.23;0.90;;;;;;;;;;5047808;28;20849;-60
2023/08/08 03:37:13;;;;;;;1.10;0.90;;;;;;;;;;5065905;28;20718;-61
2023/08/08 03:39:38;;;;;;;1.53;0.90;;;;;;;;;;5065911;28;20506;-59
2023/08/08 03:42:03;;;;;;;1.35;1.10;;;;;;;;;;5064552;28;20385;-62
2023/08/08 03:44:29;;;;;;;1.80;0.90;;;;;;;;;;5065448;28;20044;-60
2023/08/08 03:46:54;;;;;;;1.67;1.17;;;;;;;;;;5064921;28;20051;-60
2023/08/08 03:49:19;;;;;;;1.85;0.90;;;;;;;;;;5065257;28;20630;-61
2023/08/08 03:51:44;;;;;;;1.03;0.83;;;;;;;;;;5043005;28;20037;-62
2023/08/08 03:54:10;;;;;;;2.38;1.00;;;;;;;;;;5056976;28;20420;-61
2023/08/08 03:56:35;;;;;;;2.27;1.23;;;;;;;;;;5069743;28;20050;-62
2023/08/08 03:59:00;;;;;;;2.40;1.17;;;;;;;;;;5065403;28;20036;-61
2023/08/08 04:01:25;;;;;;;2.08;1.00;;;;;;;;;;5064407;28;20063;-60
2023/08/08 04:03:51;;;;;;;2.70;1.17;;;;;;;;;;5063778;28;20044;-61
2023/08/08 04:06:16;;;;;;;1.67;1.10;;;;;;;;;;5059765;28;20041;-61
2023/08/08 04:08:41;;;;;;;2.53;1.20;;;;;;;;;;5051564;28;20279;-61
2023/08/08 04:11:06;;;;;;;1.43;1.10;;;;;;;;;;5064456;28;20278;-61
2023/08/08 04:13:31;;;;;;;1.40;1.10;;;;;;;;;;5030828;28;20291;-62
2023/08/08 04:15:57;;;;;;;2.73;1.10;;;;;;;;;;5044341;28;20279;-62
2023/08/08 04:18:22;;;;;;;2.27;1.17;;;;;;;;;;5064896;28;20840;-61
2023/08/08 04:20:47;;;;;;;3.10;1.30;;;;;;;;;;5065014;28;20275;-61
2023/08/08 04:23:13;;;;;;;1.77;1.20;;;;;;;;;;5064345;28;20298;-62
2023/08/08 04:25:38;;;;;;;1.95;1.20;;;;;;;;;;5064848;28;20312;-62
2023/08/08 04:28:03;;;;;;;4.73;1.50;;;;;;;;;;5064564;28;20024;-62
2023/08/08 04:30:28;;;;;;;2.53;1.50;;;;;;;;;;5065490;28;20708;-62
2023/08/08 04:32:54;;;;;;;1.47;1.13;;;;;;;;;;5064399;28;20510;-61
2023/08/08 04:35:19;;;;;;;1.40;1.10;;;;;;;;;;5064924;28;20710;-62
2023/08/08 04:37:44;;;;;;;2.33;1.30;;;;;;;;;;5065080;28;20278;-61
2023/08/08 04:40:09;;;;;;;1.92;1.30;;;;;;;;;;5063092;28;20297;-61
2023/08/08 04:42:35;;;;;;;2.13;1.50;;;;;;;;;;5065023;28;20041;-62
2023/08/08 04:45:00;;;;;;;3.50;1.63;;;;;;;;;;5063890;28;20085;-62
2023/08/08 04:47:25;;;;;;;2.83;1.50;;;;;;;;;;5081113;28;20787;-62
2023/08/08 04:49:50;;;;;;;2.80;1.20;;;;;;;;;;5061748;28;20463;-62
2023/08/08 04:52:16;;;;;;;1.88;1.48;;;;;;;;;;5032727;28;20797;-63
2023/08/08 04:54:41;;;;;;;1.80;1.57;;;;;;;;;;5040218;22;20053;-70
2023/08/08 04:57:07;;;;;;;1.98;1.48;;;;;;;;;;5022715;28;20800;-64
2023/08/08 04:59:33;;;;;;;2.53;1.60;;;;;;;;;;5025155;28;20144;-62
2023/08/08 05:01:58;;;;;;;1.90;1.30;;;;;;;;;;5027074;28;20752;-63
2023/08/08 05:04:23;;;;;;;1.90;1.60;;;;;;;;;;5042829;28;20299;-64
2023/08/08 05:06:48;;;;;;;1.57;1.30;;;;;;;;;;5024724;28;20622;-65
2023/08/08 05:09:15;;;;;;;3.40;1.40;;;;;;;;;;5008660;28;20295;-62
2023/08/08 05:11:40;;;;;;;3.78;1.50;;;;;;;;;;5009547;28;20296;-60
2023/08/08 05:14:05;;;;;;;3.03;1.70;;;;;;;;;;5004966;28;20037;-64
2023/08/08 05:16:31;;;;;;;3.30;1.60;;;;;;;;;;4991241;28;20038;-62
2023/08/08 05:18:56;;;;;;;2.83;1.10;;;;;;;;;;5023942;28;20042;-64
2023/08/08 05:21:21;;;;;;;2.27;1.50;;;;;;;;;;5008191;28;20299;-64
2023/08/08 05:23:47;;;;;;;2.45;1.52;;;;;;;;;;5008202;28;20128;-67
2023/08/08 05:26:13;;;;;;;2.45;1.30;;;;;;;;;;5012260;28;20038;-65
2023/08/08 05:28:38;;;;;;;1.73;1.30;;;;;;;;;;5022268;28;20120;-63
2023/08/08 05:31:04;;;;;;;2.03;1.40;;;;;;;;;;5023617;28;20038;-66
2023/08/08 05:33:29;;;;;;;2.88;1.40;;;;;;;;;;5009896;28;20350;-62
2023/08/08 05:35:54;;;;;;;1.70;1.20;;;;;;;;;;5007830;28;20412;-61
2023/08/08 05:38:20;;;;;;;2.05;1.17;;;;;;;;;;5009228;28;20423;-62
2023/08/08 05:40:45;;;;;;;1.90;1.27;;;;;;;;;;5017852;28;20589;-60
2023/08/08 05:43:10;;;;;;;2.23;1.37;;;;;;;;;;5007946;28;20292;-63
2023/08/08 05:45:35;;;;;;;1.93;1.30;;;;;;;;;;5008927;28;20276;-65
2023/08/08 05:48:00;;;;;;;2.78;1.77;;;;;;;;;;5008463;28;20868;-63
2023/08/08 05:50:26;;;;;;;1.80;1.00;;;;;;;;;;5019809;28;20636;-60
2023/08/08 05:52:52;;;;;;;2.08;1.30;;;;;;;;;;5019201;28;20720;-74
2023/08/08 05:55:17;;;;;;;3.90;1.50;;;;;;;;;;5033062;28;20038;-64
2023/08/08 05:57:42;;;;;;;2.80;1.53;;;;;;;;;;5011073;28;20040;-61
2023/08/08 06:00:10;;;;;;;5.15;1.60;;;;;;;;;;5014963;28;20034;-63
2023/08/08 06:02:36;;;;;;;3.25;1.40;;;;;;;;;;5020104;28;20116;-62
2023/08/08 06:05:01;;;;;;;2.97;1.90;;;;;;;;;;5014305;28;20108;-61
2023/08/08 06:07:26;;;;;;;1.70;1.50;;;;;;;;;;5027852;28;20292;-63
2023/08/08 06:09:51;;;;;;;3.67;1.90;;;;;;;;;;5015576;28;20292;-62
2023/08/08 06:12:17;;;;;;;3.07;1.70;;;;;;;;;;5013844;28;20311;-61
2023/08/08 06:14:42;;;;;;;2.00;1.65;;;;;;;;;;5010568;28;20156;-63
2023/08/08 06:17:07;;;;;;;3.40;1.90;;;;;;;;;;5011549;28;20029;-62
2023/08/08 06:19:33;;;;;;;2.70;1.58;;;;;;;;;;5010540;28;20335;-62
2023/08/08 06:21:59;;;;;;;2.47;1.70;;;;;;;;;;5010605;28;20060;-64
2023/08/08 06:24:24;;;;;;;2.58;1.67;;;;;;;;;;5011717;28;20045;-63
2023/08/08 06:26:49;;;;;;;4.07;2.20;;;;;;;;;;5017346;28;20026;-62
2023/08/08 06:29:14;;;;;;;2.55;1.40;;;;;;;;;;5016131;28;20046;-61
2023/08/08 06:31:40;;;;;;;2.30;1.65;;;;;;;;;;5018634;28;20542;-63
2023/08/08 06:34:06;;;;;;;2.55;1.80;;;;;;;;;;5007893;28;20030;-65
2023/08/08 06:36:31;;;;;;;1.80;1.70;;;;;;;;;;5017641;28;20040;-63
2023/08/08 06:38:56;;;;;;;4.38;2.10;;;;;;;;;;5017788;28;20299;-65
2023/08/08 06:41:21;;;;;;;2.50;1.63;;;;;;;;;;5025285;28;20022;-65
2023/08/08 06:43:47;;;;;;;1.60;1.50;;;;;;;;;;5023060;28;20049;-66
2023/08/08 06:46:12;;;;;;;2.10;1.67;;;;;;;;;;5024501;28;20025;-63
2023/08/08 06:48:37;;;;;;;1.90;1.60;;;;;;;;;;5026027;28;20295;-66
2023/08/08 06:51:02;;;;;;;2.55;1.67;;;;;;;;;;5033133;28;20843;-67
2023/08/08 06:53:28;;;;;;;2.90;1.60;;;;;;;;;;5029690;28;20534;-67
2023/08/08 06:55:53;;;;;;;1.60;1.50;;;;;;;;;;5022088;28;20402;-62
2023/08/08 06:58:18;;;;;;;3.20;1.30;;;;;;;;;;5017189;28;20285;-67
2023/08/08 07:00:43;;;;;;;1.98;1.50;;;;;;;;;;5017060;28;21093;-65
2023/08/08 07:03:09;;;;;;;2.27;1.17;;;;;;;;;;5014203;28;20116;-66
2023/08/08 07:05:34;;;;;;;3.20;1.15;;;;;;;;;;5013561;28;20289;-64
2023/08/08 07:07:59;;;;;;;1.50;1.30;;;;;;;;;;5017693;28;20050;-67
2023/08/08 07:10:24;;;;;;;1.43;1.30;;;;;;;;;;5019219;28;20038;-66
2023/08/08 07:12:50;;;;;;;1.60;1.10;;;;;;;;;;5025537;28;20383;-67
2023/08/08 07:15:15;;;;;;;1.83;1.10;;;;;;;;;;5019820;28;20932;-65
2023/08/08 07:17:40;;;;;;;1.40;1.10;;;;;;;;;;5010986;28;20284;-64
2023/08/08 07:20:06;;;;;;;2.88;1.40;;;;;;;;;;5017212;28;20297;-68
2023/08/08 07:22:32;;;;;;;1.33;1.10;;;;;;;;;;5026857;28;20454;-70
2023/08/08 07:24:57;;;;;;;1.90;1.33;;;;;;;;;;5010137;28;20136;-70
2023/08/08 07:27:23;;;;;;;1.42;1.30;;;;;;;;;;5011499;28;20092;-66
2023/08/08 07:29:48;;;;;;;2.15;1.25;;;;;;;;;;5009636;28;20022;-62
2023/08/08 07:32:13;;;;;;;1.85;1.15;;;;;;;;;;5014752;28;20091;-69
2023/08/08 07:34:39;;;;;;;1.83;1.30;;;;;;;;;;5016993;28;20055;-69
2023/08/08 07:37:04;;;;;;;2.42;1.15;;;;;;;;;;5013392;28;20296;-65
2023/08/08 07:39:30;;;;;;;1.50;1.10;;;;;;;;;;5021335;28;20052;-67
2023/08/08 07:41:55;;;;;;;2.63;1.20;;;;;;;;;;5027676;28;20491;-70
2023/08/08 07:44:20;;;;;;;2.95;1.10;;;;;;;;;;5026460;28;20619;-68
2023/08/08 07:46:45;;;;;;;1.50;0.90;;;;;;;;;;5024869;28;20025;-74
2023/08/08 07:49:11;;;;;;;1.47;0.97;;;;;;;;;;5055306;22;20063;-73
2023/08/08 07:51:36;;;;;;;2.03;0.90;;;;;;;;;;5045392;28;20772;-71
2023/08/08 07:54:01;;;;;;;1.67;0.90;;;;;;;;;;5028663;28;20713;-70
2023/08/08 07:56:27;;;;;;;1.25;1.08;;;;;;;;;;5046466;28;20268;-72
2023/08/08 07:58:52;;;;;;;2.08;0.95;;;;;;;;;;5032252;28;20101;-72
2023/08/08 08:01:18;;;;;;;1.70;0.88;;;;;;;;;;5029241;28;20116;-70
2023/08/08 08:03:43;;;;;;;2.20;0.77;;;;;;;;;;5052389;28;20105;-71
2023/08/08 08:06:08;;;;;;;1.53;0.60;;;;;;;;;;5061064;28;20044;-72
2023/08/08 08:08:34;;;;;;;2.33;0.90;;;;;;;;;;5043048;28;20091;-66
2023/08/08 08:10:59;;;;;;;1.57;0.90;;;;;;;;;;5039745;28;20274;-62
2023/08/08 08:13:24;;;;;;;1.43;0.87;;;;;;;;;;5049415;28;20275;-69
2023/08/08 08:15:49;;;;;;;0.80;0.70;;;;;;;;;;5057771;28;20822;-61
2023/08/08 08:18:16;;;;;;;2.87;0.70;;;;;;;;;;5031775;28;20276;-67
2023/08/08 08:20:42;;;;;;;1.80;1.00;;;;;;;;;;5025766;28;20275;-65
2023/08/08 08:23:07;;;;;;;1.02;0.70;;;;;;;;;;5048053;28;20036;-65
2023/08/08 08:25:32;;;;;;;1.00;0.90;;;;;;;;;;5057561;28;20021;-67
2023/08/08 08:27:58;;;;;;;1.80;1.00;;;;;;;;;;5029976;28;20460;-65
2023/08/08 08:30:25;;;;;;;1.67;0.90;;;;;;;;;;5031393;28;20033;-65
2023/08/08 08:32:51;;;;;;;1.23;0.77;;;;;;;;;;5032368;28;20677;-65
2023/08/08 08:35:16;;;;;;;2.40;0.88;;;;;;;;;;5030360;28;20032;-65
2023/08/08 08:37:41;;;;;;;1.77;0.93;;;;;;;;;;5050295;28;20044;-67
2023/08/08 08:40:07;;;;;;;1.80;0.90;;;;;;;;;;5046068;28;20086;-62
2023/08/08 08:42:33;;;;;;;1.42;1.00;;;;;;;;;;5053840;28;20959;-71
2023/08/08 08:44:58;;;;;;;2.05;1.30;;;;;;;;;;5031665;28;20053;-71
2023/08/08 08:47:24;;;;;;;1.95;1.23;;;;;;;;;;5065867;28;20032;-72
2023/08/08 08:49:49;;;;;;;2.05;1.10;;;;;;;;;;5052893;28;20132;-63
2023/08/08 08:52:14;;;;;;;1.60;1.30;;;;;;;;;;5027253;28;20027;-67
2023/08/08 08:54:39;;;;;;;1.53;1.10;;;;;;;;;;5046839;28;20714;-64
2023/08/08 08:57:05;;;;;;;2.45;1.27;;;;;;;;;;5044316;28;20312;-67
2023/08/08 08:59:30;;;;;;;3.40;1.63;;;;;;;;;;5045733;28;20033;-64
2023/08/08 09:01:55;;;;;;;3.90;1.30;;;;;;;;;;5045264;28;20323;-68
2023/08/08 09:04:21;;;;;;;2.53;1.27;;;;;;;;;;5027371;28;20716;-71
2023/08/08 09:06:46;;;;;;;2.63;1.40;;;;;;;;;;5045283;28;20367;-69
2023/08/08 09:09:13;;;;;;;2.22;1.10;;;;;;;;;;5046702;28;20037;-70
2023/08/08 09:11:38;;;;;;;1.55;1.20;;;;;;;;;;5046535;28;20085;-66
2023/08/08 09:14:03;;;;;;;2.35;1.48;;;;;;;;;;5042553;28;20057;-69
2023/08/08 09:16:29;;;;;;;1.90;0.90;;;;;;;;;;5058704;28;20109;-70
2023/08/08 09:18:54;;;;;;;2.92;1.42;;;;;;;;;;5030514;28;20307;-62
2023/08/08 09:21:19;;;;;;;2.63;1.20;;;;;;;;;;5047380;28;20146;-66
2023/08/08 09:23:45;;;;;;;1.30;0.90;;;;;;;;;;5029523;28;20052;-66
2023/08/08 09:26:10;;;;;;;1.48;0.90;;;;;;;;;;5046567;28;20033;-69
2023/08/08 09:28:35;;;;;;;3.10;1.00;;;;;;;;;;5030189;28;20025;-66
2023/08/08 09:31:00;;;;;;;1.50;1.10;;;;;;;;;;5013720;28;20060;-69
2023/08/08 09:33:28;;;;;;;1.67;1.00;;;;;;;;;;5048061;28;20071;-69
2023/08/08 09:35:54;;;;;;;1.27;1.13;;;;;;;;;;5048569;28;20279;-66
2023/08/08 09:38:19;;;;;;;1.23;0.93;;;;;;;;;;5031644;28;20111;-67
2023/08/08 09:40:45;;;;;;;1.87;0.90;;;;;;;;;;5049004;28;20525;-69
2023/08/08 09:43:11;;;;;;;1.85;1.10;;;;;;;;;;5047710;28;20474;-66
2023/08/08 09:45:37;;;;;;;1.50;1.10;;;;;;;;;;5048066;28;20033;-68
2023/08/08 09:48:03;;;;;;;1.35;0.93;;;;;;;;;;5050166;28;20033;-70
2023/08/08 09:50:28;;;;;;;1.20;0.95;;;;;;;;;;5030768;28;20040;-71
2023/08/08 09:52:54;;;;;;;1.10;0.93;;;;;;;;;;5030508;28;20647;-70
2023/08/08 09:55:19;;;;;;;1.83;0.93;;;;;;;;;;5046952;28;20486;-64
2023/08/08 09:57:44;;;;;;;1.00;0.80;;;;;;;;;;5024913;28;20097;-69
2023/08/08 10:00:28;;;;;;;1.10;1.00;;;;;;;;;;5046017;28;20287;-67
2023/08/08 10:02:53;;;;;;;1.58;0.93;;;;;;;;;;5030235;28;20446;-66
2023/08/08 10:05:19;;;;;;;1.30;1.15;;;;;;;;;;5047965;28;20056;-68
2023/08/08 10:07:44;;;;;;;1.77;1.08;;;;;;;;;;5015202;28;20039;-65
2023/08/08 10:10:09;;;;;;;1.73;1.00;;;;;;;;;;5048363;28;20063;-67
2023/08/08 10:12:38;;;;;;;2.67;1.20;;;;;;;;;;5030796;28;20049;-68
2023/08/08 10:15:04;;;;;;;2.15;1.20;;;;;;;;;;5047930;28;20099;-69
2023/08/08 10:17:34;;;;;;;8.45;1.60;;;;;;;;;;5029263;28;20072;-66
2023/08/08 10:20:08;;;;;;;;;;;;;;;;;;5048455;28;20033;-70
2023/08/08 10:22:33;;;;;;;3.72;1.52;;;;;;;;;;5038533;28;19908;-65
2023/08/08 10:24:58;;;;;;;2.90;1.20;;;;;;;;;;5029713;28;20130;-67
2023/08/08 10:27:27;;;;;;;3.60;1.30;;;;;;;;;;5048454;28;20041;-68
2023/08/08 10:29:52;;;;;;;1.58;1.00;;;;;;;;;;5030828;28;20326;-72
2023/08/08 10:32:22;;;;;;;2.20;1.40;;;;;;;;;;5050804;28;20049;-67
2023/08/08 10:34:47;;;;;;;1.40;1.20;;;;;;;;;;5037365;28;20271;-70
2023/08/08 10:37:16;;;;;;;3.95;1.20;;;;;;;;;;5047576;28;20037;-71
2023/08/08 10:39:51;;;;;;;3.38;1.30;;;;;;;;;;5029638;28;20036;-69
2023/08/08 10:42:18;;;;;;;7.55;1.60;;;;;;;;;;5056471;28;20041;-70
2023/08/08 10:44:43;;;;;;;4.38;1.35;;;;;;;;;;5034961;28;20087;-68
2023/08/08 10:47:08;;;;;;;2.50;1.17;;;;;;;;;;5062732;28;20071;-70
2023/08/08 10:49:33;;;;;;;2.33;1.10;;;;;;;;;;5032906;28;20063;-71
2023/08/08 10:52:01;;;;;;;3.73;1.47;;;;;;;;;;5064357;28;20059;-69
2023/08/08 10:54:28;;;;;;;2.45;1.40;;;;;;;;;;5058390;28;20267;-67
2023/08/08 10:56:54;;;;;;;2.47;1.20;;;;;;;;;;5021819;28;20694;-68
2023/08/08 10:59:21;;;;;;;2.97;1.25;;;;;;;;;;5029236;28;20021;-66
2023/08/08 11:01:49;;;;;;;2.00;1.10;;;;;;;;;;5058406;28;20405;-68
2023/08/08 11:04:15;;;;;;;2.60;1.15;;;;;;;;;;5055745;28;20069;-65
2023/08/08 11:06:40;;;;;;;3.22;1.15;;;;;;;;;;5048831;28;20064;-65
2023/08/08 11:09:06;;;;;;;1.63;1.30;;;;;;;;;;5046675;28;20060;-68
2023/08/08 11:11:38;;;;;;;2.38;1.17;;;;;;;;;;5047422;28;20040;-70
2023/08/08 11:14:13;;;;;;;2.00;1.10;;;;;;;;;;5055097;28;20120;-68
2023/08/08 11:16:38;;;;;;;3.28;1.20;;;;;;;;;;5056705;28;20032;-67
2023/08/08 11:19:03;;;;;;;1.83;1.00;;;;;;;;;;5047245;28;20029;-70
2023/08/08 11:21:29;;;;;;;3.78;1.15;;;;;;;;;;5026547;28;20099;-69
2023/08/08 11:23:54;;;;;;;2.13;1.00;;;;;;;;;;5046928;28;20045;-66
2023/08/08 11:26:20;;;;;;;3.70;1.17;;;;;;;;;;5048223;28;20504;-68
2023/08/08 11:28:49;;;;;;;1.88;1.10;;;;;;;;;;5048220;28;20408;-68
2023/08/08 11:31:14;;;;;;;1.50;0.77;;;;;;;;;;5055470;28;20040;-63
2023/08/08 11:33:39;;;;;;;2.60;1.23;;;;;;;;;;5034301;28;20059;-66
2023/08/08 11:36:04;;;;;;;1.40;1.00;;;;;;;;;;5054229;28;20287;-69
2023/08/08 11:38:30;;;;;;;3.67;0.90;;;;;;;;;;5052711;28;20283;-68
2023/08/08 11:40:55;;;;;;;2.15;0.90;;;;;;;;;;5030314;28;20030;-68
2023/08/08 11:43:20;;;;;;;3.07;1.00;;;;;;;;;;5023226;28;20032;-68
2023/08/08 11:45:46;;;;;;;4.10;1.30;;;;;;;;;;5045381;28;20342;-70
2023/08/08 11:48:11;;;;;;;1.83;0.90;;;;;;;;;;5030473;28;20529;-70
2023/08/08 11:50:36;;;;;;;6.13;1.20;;;;;;;;;;5058049;28;20533;-68
2023/08/08 11:53:02;;;;;;;2.78;1.17;;;;;;;;;;5044239;28;20157;-67
2023/08/08 11:55:28;;;;;;;2.42;1.05;;;;;;;;;;5029680;28;21613;-67
2023/08/08 11:57:54;;;;;;;2.38;0.80;;;;;;;;;;5052971;28;20033;-64
2023/08/08 12:00:19;;;;;;;3.08;1.20;;;;;;;;;;5039846;28;20468;-65
2023/08/08 12:02:44;;;;;;;4.63;1.27;;;;;;;;;;5026422;28;20136;-68
2023/08/08 12:05:16;;;;;;;2.60;0.80;;;;;;;;;;5035675;28;20314;-68
2023/08/08 12:07:42;;;;;;;1.30;0.85;;;;;;;;;;5032780;28;20033;-70
2023/08/08 12:10:13;;;;;;;2.05;0.90;;;;;;;;;;5036088;28;20038;-68
2023/08/08 12:12:38;;;;;;;2.17;0.90;;;;;;;;;;5043945;28;20029;-67
2023/08/08 12:15:05;;;;;;;1.93;0.93;;;;;;;;;;5046074;28;20167;-67
2023/08/08 12:17:30;;;;;;;2.60;0.70;;;;;;;;;;5046393;28;20048;-66
2023/08/08 12:19:58;;;;;;;1.70;0.98;;;;;;;;;;5024442;28;20044;-67
2023/08/08 12:22:23;;;;;;;2.10;1.02;;;;;;;;;;5050406;28;20526;-69
2023/08/08 12:24:49;;;;;;;1.83;0.90;;;;;;;;;;5061152;28;20053;-73
2023/08/08 12:27:14;;;;;;;2.22;0.88;;;;;;;;;;5046525;28;20155;-67
2023/08/08 12:29:39;;;;;;;2.05;1.13;;;;;;;;;;5046818;28;20036;-71
2023/08/08 12:32:07;;;;;;;2.47;0.97;;;;;;;;;;5046887;28;20087;-70
2023/08/08 12:34:32;;;;;;;1.98;1.00;;;;;;;;;;5053391;28;20033;-76
2023/08/08 12:36:58;;;;;;;2.20;0.77;;;;;;;;;;5044767;28;20029;-69
2023/08/08 12:39:23;;;;;;;1.77;0.90;;;;;;;;;;5066438;28;20655;-67
2023/08/08 12:41:48;;;;;;;1.53;0.87;;;;;;;;;;5057193;28;20524;-66
2023/08/08 12:44:14;;;;;;;1.10;0.73;;;;;;;;;;5045982;28;20303;-68
2023/08/08 12:46:39;;;;;;;1.67;0.70;;;;;;;;;;5045520;28;20842;-69
2023/08/08 12:49:05;;;;;;;1.60;0.75;;;;;;;;;;5053433;28;20038;-66
2023/08/08 12:51:30;;;;;;;1.87;1.07;;;;;;;;;;5052725;28;20079;-68
2023/08/08 12:53:55;;;;;;;1.93;0.70;;;;;;;;;;5035710;28;20025;-67
2023/08/08 12:56:20;;;;;;;2.03;0.83;;;;;;;;;;5036726;28;20135;-74
2023/08/08 12:58:46;;;;;;;1.40;0.80;;;;;;;;;;5045996;28;20119;-67
2023/08/08 13:01:11;;;;;;;3.30;0.90;;;;;;;;;;5049652;28;20053;-73
2023/08/08 13:03:36;;;;;;;1.42;0.70;;;;;;;;;;5052622;28;20140;-70
2023/08/08 13:06:01;;;;;;;1.65;0.70;;;;;;;;;;5045554;28;20037;-72
2023/08/08 13:08:27;;;;;;;0.95;0.65;;;;;;;;;;5051748;28;20142;-68
2023/08/08 13:10:52;;;;;;;1.55;0.80;;;;;;;;;;5056365;28;20033;-71
2023/08/08 13:13:18;;;;;;;1.27;0.70;;;;;;;;;;5027316;28;20029;-69
2023/08/08 13:15:45;;;;;;;1.38;0.80;;;;;;;;;;5036441;28;20202;-71
2023/08/08 13:18:10;;;;;;;1.20;0.73;;;;;;;;;;5052637;28;20036;-65
2023/08/08 13:20:35;;;;;;;1.53;0.60;;;;;;;;;;5031822;28;20090;-69
2023/08/08 13:23:01;;;;;;;1.77;0.90;;;;;;;;;;5044419;28;20295;-72
2023/08/08 13:25:26;;;;;;;1.50;0.93;;;;;;;;;;5045340;28;20060;-66
2023/08/08 13:27:51;;;;;;;0.90;0.73;;;;;;;;;;5043268;28;20115;-75
2023/08/08 13:30:16;;;;;;;2.90;0.70;;;;;;;;;;5045638;28;20056;-73
2023/08/08 13:32:42;;;;;;;1.17;0.60;;;;;;;;;;5049134;28;20083;-74
2023/08/08 13:35:07;;;;;;;1.77;0.85;;;;;;;;;;5053512;28;20040;-74
2023/08/08 13:37:32;;;;;;;1.17;0.90;;;;;;;;;;5045386;28;20037;-73
2023/08/08 13:39:57;;;;;;;1.43;0.83;;;;;;;;;;5056654;28;20060;-73
2023/08/08 13:42:23;;;;;;;1.27;0.80;;;;;;;;;;5044502;28;20278;-67
2023/08/08 13:44:48;;;;;;;1.37;0.80;;;;;;;;;;5052295;28;20300;-63
2023/08/08 13:47:13;;;;;;;1.48;0.70;;;;;;;;;;5038916;28;20302;-65
2023/08/08 13:49:38;;;;;;;2.13;0.80;;;;;;;;;;5033485;28;20439;-68
2023/08/08 13:52:04;;;;;;;1.75;0.82;;;;;;;;;;5034516;28;20427;-70
2023/08/08 13:54:29;;;;;;;1.23;0.70;;;;;;;;;;5043213;28;20069;-64
2023/08/08 13:56:54;;;;;;;1.37;0.90;;;;;;;;;;5038363;28;20041;-62
2023/08/08 13:59:20;;;;;;;1.77;0.60;;;;;;;;;;5032365;28;20295;-67
2023/08/08 14:01:45;;;;;;;2.30;1.00;;;;;;;;;;5041721;28;20290;-66
2023/08/08 14:04:10;;;;;;;2.27;0.90;;;;;;;;;;5055317;28;20827;-65
2023/08/08 14:06:35;;;;;;;1.50;1.00;;;;;;;;;;5053702;28;20279;-67
2023/08/08 14:09:00;;;;;;;1.87;0.80;;;;;;;;;;5038071;28;20292;-70
2023/08/08 14:11:26;;;;;;;2.77;0.80;;;;;;;;;;5036762;28;20268;-70
2023/08/08 14:13:51;;;;;;;4.55;0.93;;;;;;;;;;5052175;28;20422;-71
2023/08/08 14:16:16;;;;;;;2.83;1.03;;;;;;;;;;5047143;28;20041;-71
2023/08/08 14:18:42;;;;;;;3.53;1.25;;;;;;;;;;5021128;28;20303;-68
2023/08/08 14:21:07;;;;;;;2.17;0.97;;;;;;;;;;5054161;28;20116;-66
2023/08/08 14:23:32;;;;;;;6.57;0.82;;;;;;;;;;5050996;28;20306;-67
2023/08/08 14:25:58;;;;;;;1.47;0.90;;;;;;;;;;5061413;28;20037;-69
2023/08/08 14:28:23;;;;;;;3.73;1.00;;;;;;;;;;5053784;28;20279;-68
2023/08/08 14:30:48;;;;;;;4.17;1.00;;;;;;;;;;5056478;28;20711;-68
2023/08/08 14:33:14;;;;;;;2.70;1.27;;;;;;;;;;5049904;28;20291;-66